Time;durP1;ratioP1;P1;durP2;ratioP2;P2;SDS_P1;SDS_P2;PMS_P1;PMS_P2;Temp;Humidity;BMP_temperature;BMP_pressure;BME280_temperature;BME280_humidity;BME280_pressure;Samples;Min_cycle;Max_cycle;Signal;HPM_P1;HPM_P2
2021/08/05 01:02:11;;;;;;;4.53;4.13;;;16.60;99.90;;;;;;4744414;30;20543;-84
2021/08/05 01:04:38;;;;;;;6.33;4.57;;;16.60;99.90;;;;;;4788203;29;20464;-84
2021/08/05 01:07:11;;;;;;;5.70;5.20;;;16.50;99.90;;;;;;4917142;29;20826;-84
2021/08/05 01:09:46;;;;;;;4.80;4.37;;;16.50;99.90;;;;;;4955840;28;20441;-84
2021/08/05 01:12:21;;;;;;;4.47;4.10;;;16.50;99.90;;;;;;4986963;28;20538;-84
2021/08/05 01:14:56;;;;;;;4.87;4.10;;;16.50;99.90;;;;;;4987465;28;20490;-84
2021/08/05 01:17:25;;;;;;;6.17;4.50;;;16.50;99.90;;;;;;4986878;28;20454;-84
2021/08/05 01:19:57;;;;;;;4.57;4.17;;;16.50;99.90;;;;;;4987336;28;20520;-84
2021/08/05 01:22:30;;;;;;;5.37;4.87;;;16.50;99.90;;;;;;4985848;28;20467;-84
2021/08/05 01:25:03;;;;;;;5.53;5.13;;;16.50;99.90;;;;;;4986676;28;20454;-84
2021/08/05 01:27:32;;;;;;;5.57;5.07;;;16.50;99.90;;;;;;4986718;28;21004;-84
2021/08/05 01:30:00;;;;;;;6.57;4.97;;;16.50;99.90;;;;;;4987273;28;20535;-84
2021/08/05 01:32:29;;;;;;;6.13;5.07;;;16.50;99.90;;;;;;4986575;28;20483;-84
2021/08/05 01:34:57;;;;;;;4.77;4.43;;;16.50;99.90;;;;;;4986430;28;20440;-84
2021/08/05 01:37:26;;;;;;;7.53;5.87;;;16.50;99.90;;;;;;4986640;28;20458;-84
2021/08/05 01:39:54;;;;;;;5.50;5.00;;;16.50;99.90;;;;;;4987190;28;20874;-84
2021/08/05 01:42:22;;;;;;;5.43;5.03;;;16.50;99.90;;;;;;4985680;28;20483;-84
2021/08/05 01:44:52;;;;;;;6.53;5.90;;;16.50;99.90;;;;;;4987108;28;20531;-84
2021/08/05 01:47:21;;;;;;;5.47;4.90;;;16.50;99.90;;;;;;4986607;28;20462;-84
2021/08/05 01:49:49;;;;;;;6.13;5.53;;;16.50;99.90;;;;;;4983283;28;20496;-84
2021/08/05 01:52:18;;;;;;;6.90;6.30;;;16.50;99.90;;;;;;4982017;28;20475;-84
2021/08/05 01:54:45;;;;;;;6.77;6.07;;;16.50;99.90;;;;;;4982713;28;20448;-84
2021/08/05 01:57:12;;;;;;;6.17;5.53;;;16.50;99.90;;;;;;4982521;28;20445;-84
2021/08/05 01:59:39;;;;;;;6.40;5.20;;;16.40;99.90;;;;;;4982738;28;20451;-83
2021/08/05 02:02:08;;;;;;;5.70;5.20;;;16.40;99.90;;;;;;4982385;28;20487;-84
2021/08/05 02:04:45;;;;;;;6.20;5.37;;;16.40;99.90;;;;;;4994054;28;20479;-83
2021/08/05 02:07:16;;;;;;;5.53;5.13;;;16.40;99.90;;;;;;4995767;28;20431;-82
2021/08/05 02:09:49;;;;;;;5.10;4.70;;;16.40;99.90;;;;;;4994636;28;20554;-84
2021/08/05 02:12:17;;;;;;;5.50;5.00;;;16.40;99.90;;;;;;4983909;28;20483;-84
2021/08/05 02:14:45;;;;;;;5.93;5.43;;;16.50;99.90;;;;;;4984293;28;20558;-84
2021/08/05 02:17:13;;;;;;;5.80;5.00;;;16.50;99.90;;;;;;4983262;28;20439;-84
2021/08/05 02:19:41;;;;;;;5.00;4.60;;;16.50;99.90;;;;;;4983294;28;20455;-83
2021/08/05 02:22:08;;;;;;;5.97;5.47;;;16.50;99.90;;;;;;4982018;28;20476;-84
2021/08/05 02:24:37;;;;;;;5.50;5.00;;;16.50;99.90;;;;;;4982715;28;20451;-84
2021/08/05 02:27:04;;;;;;;4.60;4.20;;;16.50;99.90;;;;;;4983133;28;20942;-84
2021/08/05 02:29:32;;;;;;;4.87;4.37;;;16.50;99.90;;;;;;4981921;28;20518;-84
2021/08/05 02:32:00;;;;;;;6.83;6.23;;;16.50;99.90;;;;;;4981687;28;20476;-84
2021/08/05 02:34:31;;;;;;;5.63;5.17;;;16.50;99.90;;;;;;4981818;28;20462;-84
2021/08/05 02:36:59;;;;;;;5.70;5.30;;;16.50;99.90;;;;;;4982494;28;20456;-84
2021/08/05 02:39:26;;;;;;;6.10;5.60;;;16.40;99.90;;;;;;4982342;28;20894;-84
2021/08/05 02:41:53;;;;;;;7.00;5.97;;;16.40;99.90;;;;;;4981945;28;20468;-84
2021/08/05 02:44:21;;;;;;;5.10;4.70;;;16.40;99.90;;;;;;4981653;28;20443;-84
2021/08/05 02:46:49;;;;;;;6.10;5.70;;;16.40;99.90;;;;;;4981807;28;20798;-84
2021/08/05 02:49:16;;;;;;;5.70;5.30;;;16.40;99.90;;;;;;4981496;28;20487;-84
2021/08/05 02:51:45;;;;;;;5.70;5.20;;;16.30;99.90;;;;;;4981413;28;20475;-84
2021/08/05 02:54:13;;;;;;;6.20;5.60;;;16.30;99.90;;;;;;4981255;28;20447;-84
2021/08/05 02:56:41;;;;;;;6.73;6.13;;;16.30;99.90;;;;;;4981947;28;20470;-83
2021/08/05 02:59:08;;;;;;;7.33;6.27;;;16.30;99.90;;;;;;4982131;28;20475;-84
2021/08/05 03:01:35;;;;;;;5.53;5.03;;;16.30;99.90;;;;;;4981416;28;20479;-84
2021/08/05 03:04:02;;;;;;;6.27;5.67;;;16.20;99.90;;;;;;4982561;28;20452;-84
2021/08/05 03:06:31;;;;;;;5.93;5.40;;;16.30;99.90;;;;;;4981769;28;20532;-84
2021/08/05 03:08:59;;;;;;;5.00;4.50;;;16.30;99.90;;;;;;4981896;28;20753;-84
2021/08/05 03:11:26;;;;;;;6.43;5.73;;;16.30;99.90;;;;;;4981329;28;20456;-84
2021/08/05 03:13:53;;;;;;;8.57;6.50;;;16.20;99.90;;;;;;4981892;28;20466;-84
2021/08/05 03:16:20;;;;;;;5.53;5.00;;;16.20;99.90;;;;;;4981888;28;20455;-84
2021/08/05 03:18:46;;;;;;;6.40;5.60;;;16.20;99.90;;;;;;4982359;28;20455;-84
2021/08/05 03:21:13;;;;;;;6.40;5.80;;;16.20;99.90;;;;;;4981543;28;20455;-84
2021/08/05 03:23:40;;;;;;;7.93;6.90;;;16.20;99.90;;;;;;4981941;28;20459;-84
2021/08/05 03:26:08;;;;;;;6.50;6.00;;;16.00;99.90;;;;;;4982745;28;20534;-84
2021/08/05 03:28:35;;;;;;;8.33;7.53;;;16.00;99.90;;;;;;4982065;28;20487;-84
2021/08/05 03:31:02;;;;;;;7.70;6.50;;;16.00;99.90;;;;;;4982881;28;20464;-84
2021/08/05 03:33:29;;;;;;;8.23;7.43;;;16.00;99.90;;;;;;4981599;28;20459;-84
2021/08/05 03:35:56;;;;;;;6.87;6.23;;;16.00;99.90;;;;;;4982804;28;20456;-84
2021/08/05 03:38:23;;;;;;;7.40;6.70;;;16.00;99.90;;;;;;4982517;28;20452;-84
2021/08/05 03:40:49;;;;;;;7.13;6.50;;;15.80;99.90;;;;;;4981299;28;20460;-84
2021/08/05 03:43:17;;;;;;;9.80;7.67;;;15.90;99.90;;;;;;4981106;28;20472;-84
2021/08/05 03:45:44;;;;;;;8.87;8.07;;;15.90;99.90;;;;;;4981908;28;20467;-84
2021/08/05 03:48:11;;;;;;;8.40;7.60;;;15.70;99.90;;;;;;4981806;28;20464;-84
2021/08/05 03:50:38;;;;;;;8.67;7.63;;;15.70;99.90;;;;;;4981258;28;20456;-84
2021/08/05 03:53:05;;;;;;;7.83;7.03;;;15.70;99.90;;;;;;4981452;28;20471;-84
2021/08/05 03:55:31;;;;;;;8.23;7.53;;;15.70;99.90;;;;;;4981274;28;20455;-84
2021/08/05 03:57:58;;;;;;;8.00;7.30;;;15.70;99.90;;;;;;4981776;28;20463;-84
2021/08/05 04:00:26;;;;;;;8.70;7.87;;;15.80;99.90;;;;;;4981500;28;20462;-84
2021/08/05 04:02:53;;;;;;;8.30;7.47;;;15.80;99.90;;;;;;4981781;28;20476;-84
2021/08/05 04:05:20;;;;;;;7.33;6.63;;;15.80;99.90;;;;;;4980740;28;20463;-84
2021/08/05 04:07:47;;;;;;;7.67;6.97;;;15.90;99.90;;;;;;4981056;28;20487;-84
2021/08/05 04:10:13;;;;;;;6.77;6.17;;;15.90;99.90;;;;;;4980875;28;20484;-84
2021/08/05 04:12:40;;;;;;;7.43;6.73;;;16.00;99.90;;;;;;4981310;28;20477;-83
2021/08/05 04:15:08;;;;;;;9.47;7.60;;;16.00;99.90;;;;;;4981714;28;20547;-84
2021/08/05 04:17:36;;;;;;;7.83;7.17;;;16.00;99.90;;;;;;4981723;28;20456;-84
2021/08/05 04:20:04;;;;;;;9.17;6.30;;;16.10;99.90;;;;;;4981950;28;20534;-83
2021/08/05 04:22:31;;;;;;;7.50;6.40;;;16.10;99.90;;;;;;4980924;28;20491;-84
2021/08/05 04:24:58;;;;;;;6.77;6.10;;;16.10;99.90;;;;;;4981687;28;20447;-84
2021/08/05 04:27:25;;;;;;;7.00;6.40;;;16.10;99.90;;;;;;4980938;28;20543;-84
2021/08/05 04:29:51;;;;;;;7.77;7.07;;;16.20;99.90;;;;;;4981230;28;20493;-84
2021/08/05 04:32:18;;;;;;;7.03;6.50;;;16.20;99.90;;;;;;4983543;28;20462;-84
2021/08/05 04:34:48;;;;;;;9.30;8.50;;;16.20;99.90;;;;;;4984636;28;20453;-84
2021/08/05 04:37:15;;;;;;;8.17;7.47;;;16.20;99.90;;;;;;4984298;28;21010;-84
2021/08/05 04:39:42;;;;;;;6.70;6.10;;;16.20;99.90;;;;;;4983718;28;20459;-83
2021/08/05 04:42:08;;;;;;;7.37;6.77;;;16.20;99.90;;;;;;4983555;28;20476;-84
2021/08/05 04:44:35;;;;;;;7.93;6.97;;;16.20;99.90;;;;;;4983785;28;20465;-84
2021/08/05 04:47:02;;;;;;;7.73;7.03;;;16.20;99.90;;;;;;4984121;28;20456;-84
2021/08/05 04:49:29;;;;;;;7.90;6.63;;;16.20;99.90;;;;;;4983148;28;20488;-84
2021/08/05 04:51:57;;;;;;;8.60;7.33;;;16.30;99.90;;;;;;4983189;28;20549;-84
2021/08/05 04:54:24;;;;;;;6.83;6.20;;;16.30;99.90;;;;;;4983904;28;20452;-84
2021/08/05 04:56:51;;;;;;;7.50;6.20;;;16.40;99.90;;;;;;4983250;28;20446;-84
2021/08/05 04:59:17;;;;;;;6.57;5.97;;;16.40;99.90;;;;;;4982726;28;20460;-84
2021/08/05 05:01:44;;;;;;;7.13;6.43;;;16.40;99.90;;;;;;4982836;28;20468;-84
2021/08/05 05:04:11;;;;;;;5.57;5.03;;;16.40;99.90;;;;;;4982286;28;20444;-84
2021/08/05 05:06:38;;;;;;;7.60;6.10;;;16.40;99.90;;;;;;4983045;28;20456;-84
2021/08/05 05:09:06;;;;;;;6.30;5.40;;;16.30;99.90;;;;;;4982416;28;20552;-84
2021/08/05 05:11:33;;;;;;;6.90;6.20;;;16.30;99.90;;;;;;4982673;28;20448;-84
2021/08/05 05:14:00;;;;;;;5.80;5.20;;;16.40;99.90;;;;;;4983438;28;20548;-85
2021/08/05 05:16:27;;;;;;;6.30;5.80;;;16.40;99.90;;;;;;4983132;28;20449;-84
2021/08/05 05:18:54;;;;;;;6.00;5.60;;;16.50;99.90;;;;;;4983011;28;20452;-84
2021/08/05 05:21:21;;;;;;;5.97;5.57;;;16.50;99.90;;;;;;4982533;28;20460;-84
2021/08/05 05:23:48;;;;;;;5.20;4.80;;;16.60;99.90;;;;;;4982567;28;20506;-84
2021/08/05 05:26:16;;;;;;;5.90;5.40;;;16.60;99.90;;;;;;4982291;28;20464;-84
2021/08/05 05:28:43;;;;;;;6.30;5.83;;;16.60;99.90;;;;;;4982864;28;20467;-84
2021/08/05 05:31:09;;;;;;;5.83;5.33;;;16.60;99.90;;;;;;4982857;28;20856;-85
2021/08/05 05:33:36;;;;;;;9.43;7.20;;;16.60;99.90;;;;;;4981892;28;20515;-84
2021/08/05 05:36:03;;;;;;;7.10;5.33;;;16.60;99.90;;;;;;4982604;28;20510;-84
2021/08/05 05:38:30;;;;;;;5.40;5.00;;;16.70;99.90;;;;;;4981904;28;20843;-84
2021/08/05 05:40:59;;;;;;;6.93;6.37;;;16.60;99.90;;;;;;4982023;28;20469;-84
2021/08/05 05:43:27;;;;;;;5.47;4.50;;;16.70;99.90;;;;;;4980310;28;20469;-84
2021/08/05 05:45:54;;;;;;;5.17;4.87;;;16.70;99.90;;;;;;4981759;28;20462;-84
2021/08/05 05:48:21;;;;;;;5.70;5.13;;;16.70;99.90;;;;;;4981455;28;20458;-84
2021/08/05 05:50:48;;;;;;;4.73;4.33;;;16.60;99.90;;;;;;4981360;28;20490;-84
2021/08/05 05:53:15;;;;;;;5.63;5.13;;;16.60;99.90;;;;;;4980943;28;20481;-86
2021/08/05 05:55:42;;;;;;;7.47;5.27;;;16.60;99.90;;;;;;4980813;28;20556;-84
2021/08/05 05:58:09;;;;;;;4.20;3.80;;;16.60;99.90;;;;;;4981370;28;20440;-84
2021/08/05 06:00:37;;;;;;;6.07;5.30;;;16.60;99.90;;;;;;4981026;28;20448;-86
2021/08/05 06:03:05;;;;;;;5.97;5.47;;;16.70;99.90;;;;;;4981314;28;20461;-85
2021/08/05 06:05:32;;;;;;;5.33;4.93;;;16.70;99.90;;;;;;4981447;28;20539;-84
2021/08/05 06:07:59;;;;;;;6.17;4.73;;;16.80;99.90;;;;;;4981466;28;20465;-84
2021/08/05 06:10:26;;;;;;;8.67;4.87;;;16.80;99.90;;;;;;4981666;28;20486;-85
2021/08/05 06:12:53;;;;;;;6.00;5.57;;;16.90;99.90;;;;;;4981381;28;20485;-85
2021/08/05 06:15:21;;;;;;;5.27;4.80;;;16.90;99.90;;;;;;4982295;28;20521;-85
2021/08/05 06:17:51;;;;;;;5.63;5.07;;;16.80;99.90;;;;;;4981313;28;20482;-85
2021/08/05 06:20:20;;;;;;;6.33;5.50;;;16.90;99.90;;;;;;4980785;28;20462;-86
2021/08/05 06:22:51;;;;;;;4.73;4.33;;;17.00;99.90;;;;;;4980300;28;20843;-87
2021/08/05 06:25:18;;;;;;;4.97;4.13;;;17.10;99.90;;;;;;4981597;28;20536;-86
2021/08/05 06:27:46;;;;;;;5.00;4.60;;;17.20;99.90;;;;;;4980784;28;20441;-85
2021/08/05 06:30:13;;;;;;;4.60;4.20;;;17.30;99.90;;;;;;4981470;28;20485;-85
2021/08/05 06:32:40;;;;;;;5.17;4.67;;;17.20;99.90;;;;;;4980745;28;20530;-85
2021/08/05 06:35:10;;;;;;;4.27;3.77;;;17.30;99.90;;;;;;4980140;28;20469;-86
2021/08/05 06:37:37;;;;;;;4.67;3.53;;;17.20;99.90;;;;;;4989642;28;20477;-82
2021/08/05 06:40:05;;;;;;;4.30;4.00;;;17.20;99.90;;;;;;4995036;28;20480;-83
2021/08/05 06:42:33;;;;;;;6.43;4.10;;;17.20;99.90;;;;;;4995202;28;20501;-83
2021/08/05 06:45:00;;;;;;;5.20;4.07;;;17.20;99.90;;;;;;4983721;28;20445;-87
2021/08/05 06:47:28;;;;;;;5.27;4.87;;;17.20;99.90;;;;;;4980858;28;20467;-85
2021/08/05 06:49:56;;;;;;;3.90;3.60;;;17.30;99.90;;;;;;4980523;28;20511;-86
2021/08/05 06:52:24;;;;;;;4.20;3.80;;;17.40;99.90;;;;;;4981155;28;20473;-85
2021/08/05 06:54:51;;;;;;;6.13;4.20;;;17.50;99.90;;;;;;4980536;28;20545;-86
2021/08/05 06:57:18;;;;;;;5.00;3.33;;;17.60;99.90;;;;;;4980001;28;20462;-85
2021/08/05 06:59:45;;;;;;;3.93;3.63;;;17.80;99.90;;;;;;4979564;28;20979;-86
2021/08/05 07:02:12;;;;;;;3.70;3.40;;;17.90;99.90;;;;;;4980157;28;20490;-86
2021/08/05 07:04:39;;;;;;;3.30;3.10;;;18.10;99.90;;;;;;4979880;28;20902;-86
2021/08/05 07:07:06;;;;;;;5.10;2.93;;;18.20;99.90;;;;;;4980184;28;20490;-86
2021/08/05 07:09:34;;;;;;;5.53;3.30;;;18.40;99.90;;;;;;4980100;28;21130;-86
2021/08/05 07:12:01;;;;;;;4.00;3.70;;;18.50;99.90;;;;;;4979644;28;20463;-86
2021/08/05 07:14:28;;;;;;;3.70;3.47;;;18.70;99.90;;;;;;4980098;28;20554;-86
2021/08/05 07:16:55;;;;;;;4.00;3.60;;;18.90;99.90;;;;;;4979044;28;20966;-86
2021/08/05 07:19:22;;;;;;;5.80;3.57;;;19.10;99.90;;;;;;4979574;28;20458;-86
2021/08/05 07:21:49;;;;;;;3.23;3.00;;;19.20;99.90;;;;;;4979115;28;20489;-86
2021/08/05 07:24:16;;;;;;;3.13;2.83;;;19.30;99.90;;;;;;4979785;28;20561;-86
2021/08/05 07:26:47;;;;;;;3.10;2.80;;;19.50;99.90;;;;;;4978902;28;20467;-86
2021/08/05 07:29:14;;;;;;;3.00;2.00;;;19.70;99.90;;;;;;4979188;28;20453;-86
2021/08/05 07:31:41;;;;;;;3.73;3.43;;;19.90;99.90;;;;;;4978811;28;20507;-86
2021/08/05 07:34:08;;;;;;;4.07;2.93;;;20.10;99.90;;;;;;4979768;28;20976;-86
2021/08/05 07:36:36;;;;;;;2.77;2.57;;;20.20;99.90;;;;;;4979620;28;20457;-86
2021/08/05 07:39:05;;;;;;;4.13;3.30;;;20.30;99.90;;;;;;4979263;28;20490;-86
2021/08/05 07:41:32;;;;;;;5.20;3.50;;;20.20;99.90;;;;;;4979260;28;20887;-86
2021/08/05 07:44:01;;;;;;;3.10;2.80;;;20.30;99.90;;;;;;4980043;28;21012;-86
2021/08/05 07:46:28;;;;;;;3.33;3.03;;;20.30;99.90;;;;;;4979497;28;20486;-86
2021/08/05 07:54:06;;;;;;;2.60;2.40;;;20.60;99.90;;;;;;5324917;23;20499;-86
2021/08/05 07:56:32;;;;;;;3.33;3.03;;;20.70;99.90;;;;;;4978678;28;20455;-86
2021/08/05 07:59:01;;;;;;;2.90;2.70;;;20.80;99.90;;;;;;4978544;28;20466;-86
2021/08/05 08:01:28;;;;;;;3.03;2.83;;;20.90;99.90;;;;;;4979055;28;20461;-86
2021/08/05 08:03:55;;;;;;;2.87;2.70;;;21.00;99.90;;;;;;4978801;28;20467;-85
2021/08/05 08:06:22;;;;;;;4.33;3.07;;;21.10;99.90;;;;;;4981383;28;20820;-85
2021/08/05 08:08:49;;;;;;;3.53;2.93;;;21.20;99.90;;;;;;4984035;28;20460;-85
2021/08/05 08:11:22;;;;;;;3.30;2.80;;;21.20;99.90;;;;;;4983962;28;20500;-85
2021/08/05 08:13:49;;;;;;;3.00;2.80;;;21.20;99.90;;;;;;4983478;28;20536;-85
2021/08/05 08:16:18;;;;;;;2.83;2.63;;;21.30;99.90;;;;;;4983517;28;20451;-85
2021/08/05 08:18:45;;;;;;;2.90;2.70;;;21.30;99.90;;;;;;4983461;28;20474;-85
2021/08/05 08:21:12;;;;;;;2.90;2.70;;;21.50;99.90;;;;;;4983584;28;20448;-85
2021/08/05 08:23:39;;;;;;;4.53;3.47;;;21.50;99.90;;;;;;4982844;28;20473;-85
2021/08/05 08:26:06;;;;;;;2.60;2.40;;;21.60;99.90;;;;;;4983611;28;20465;-84
2021/08/05 08:28:33;;;;;;;2.90;2.70;;;21.60;99.90;;;;;;4984018;28;20464;-85
2021/08/05 08:31:00;;;;;;;2.70;2.50;;;21.70;99.90;;;;;;4983429;28;20499;-85
2021/08/05 08:33:28;;;;;;;3.40;3.10;;;21.60;99.90;;;;;;4983086;28;20476;-85
2021/08/05 08:35:57;;;;;;;4.10;2.90;;;21.60;99.90;;;;;;4983117;28;20452;-85
2021/08/05 08:38:24;;;;;;;2.83;2.63;;;21.70;99.90;;;;;;4982612;28;20457;-85
2021/08/05 08:40:51;;;;;;;2.60;2.40;;;21.80;99.90;;;;;;4982500;28;20492;-85
2021/08/05 08:43:18;;;;;;;3.30;3.00;;;21.80;99.90;;;;;;4982438;28;20549;-84
2021/08/05 08:45:45;;;;;;;3.37;3.13;;;21.90;99.90;;;;;;4983107;28;20465;-85
2021/08/05 08:48:13;;;;;;;3.00;2.80;;;22.00;99.80;;;;;;4982883;28;20453;-85
2021/08/05 08:50:43;;;;;;;3.03;2.83;;;22.00;99.90;;;;;;4983090;28;20853;-85
2021/08/05 08:53:11;;;;;;;3.63;2.70;;;22.00;99.90;;;;;;4982136;28;20478;-86
2021/08/05 08:55:43;;;;;;;2.87;2.67;;;22.00;99.90;;;;;;4982034;28;20480;-86
2021/08/05 08:58:11;;;;;;;2.90;2.70;;;21.90;99.90;;;;;;4982994;28;20445;-86
2021/08/05 09:00:38;;;;;;;3.07;2.87;;;21.80;99.90;;;;;;4982222;28;20955;-86
2021/08/05 09:03:05;;;;;;;2.83;2.63;;;21.70;99.90;;;;;;4982293;28;20484;-86
2021/08/05 09:05:32;;;;;;;2.90;2.70;;;21.60;99.90;;;;;;4981916;28;20482;-86
2021/08/05 09:08:02;;;;;;;2.80;2.60;;;21.40;99.90;;;;;;4982585;28;20451;-86
2021/08/05 09:10:42;;;;;;;;;;;;;;;;;;;;;
2021/08/05 09:13:17;;;;;;;3.00;2.80;;;21.20;99.90;;;;;;4976043;28;20560;-86
2021/08/05 09:15:56;;;;;;;2.80;2.60;;;21.10;99.90;;;;;;4982085;28;20514;-86
2021/08/05 09:18:31;;;;;;;1.97;1.77;;;21.10;99.90;;;;;;4982237;28;20461;-86
2021/08/05 09:21:21;;;;;;;2.20;2.10;;;20.80;99.10;;;;;;4981967;28;20498;-86
2021/08/05 09:24:14;;;;;;;2.90;1.50;;;20.90;99.10;;;;;;4981735;28;20546;-86
2021/08/05 09:26:56;;;;;;;4.13;2.43;;;21.10;99.50;;;;;;4981444;28;20530;-86
2021/08/05 09:29:44;;;;;;;3.40;2.00;;;21.20;99.20;;;;;;4981348;28;20475;-86
2021/08/05 09:32:17;;;;;;;2.20;2.00;;;21.40;99.30;;;;;;4980952;28;20484;-86
2021/08/05 09:35:07;;;;;;;1.67;1.57;;;21.50;99.20;;;;;;4981479;28;20483;-86
2021/08/05 09:37:57;;;;;;;2.73;1.87;;;21.70;97.60;;;;;;4981457;28;20520;-85
2021/08/05 09:40:37;;;;;;;2.10;2.00;;;21.90;97.60;;;;;;4981859;28;20505;-85
2021/08/05 09:43:27;;;;;;;2.00;1.90;;;22.00;97.30;;;;;;4980715;28;20484;-85
2021/08/05 09:45:57;;;;;;;2.23;2.13;;;22.00;98.00;;;;;;4953988;28;20477;-85
2021/08/05 09:48:58;;;;;;;1.53;1.43;;;22.10;97.90;;;;;;4981803;28;20468;-85
2021/08/05 09:51:46;;;;;;;2.00;1.80;;;22.20;96.80;;;;;;4977224;28;20572;-85
2021/08/05 09:54:20;;;;;;;1.60;1.50;;;22.40;96.90;;;;;;4980904;28;20805;-85
2021/08/05 09:56:59;;;;;;;1.93;1.70;;;22.60;96.70;;;;;;4981272;28;20458;-85
2021/08/05 10:00:08;;;;;;;1.70;1.60;;;22.80;95.30;;;;;;4980916;28;20461;-85
2021/08/05 10:03:21;;;;;;;2.20;2.00;;;23.00;95.30;;;;;;4980893;28;20458;-85
2021/08/05 10:06:32;;;;;;;1.90;1.80;;;23.40;95.40;;;;;;4940772;28;21022;-85
2021/08/05 10:09:02;;;;;;;5.00;3.03;;;23.50;94.50;;;;;;4987791;28;20476;-84
2021/08/05 10:11:43;;;;;;;2.97;2.30;;;23.60;94.60;;;;;;4994817;28;20491;-83
2021/08/05 10:14:28;;;;;;;2.60;1.90;;;23.60;93.80;;;;;;4994521;28;20475;-83
2021/08/05 10:17:22;;;;;;;10.97;3.93;;;23.70;94.30;;;;;;4981268;28;20468;-87
2021/08/05 10:19:52;;;;;;;3.40;2.27;;;23.70;94.00;;;;;;4980987;28;20827;-86
2021/08/05 10:22:27;;;;;;;1.80;1.70;;;23.80;94.20;;;;;;4980274;28;20452;-86
2021/08/05 10:25:17;;;;;;;1.17;1.10;;;23.80;92.10;;;;;;4980072;28;20444;-86
2021/08/05 10:27:47;;;;;;;1.37;1.27;;;23.80;92.50;;;;;;4979784;28;20462;-85
2021/08/05 10:30:28;;;;;;;0.87;0.83;;;23.80;92.70;;;;;;4980827;28;20829;-85
2021/08/05 10:33:16;;;;;;;1.40;1.30;;;24.00;91.70;;;;;;4981053;28;20536;-85
2021/08/05 10:35:49;;;;;;;2.70;2.03;;;24.20;92.30;;;;;;4980706;28;20436;-85
2021/08/05 10:38:26;;;;;;;1.83;1.70;;;24.40;92.30;;;;;;4980332;28;20950;-85
2021/08/05 10:41:12;;;;;;;4.80;1.30;;;24.70;91.30;;;;;;4980668;28;20451;-86
2021/08/05 10:56:48;;;;;;;0.83;0.83;;;26.00;88.20;;;;;;4958566;28;20445;-86
2021/08/05 10:59:38;;;;;;;1.60;0.93;;;25.70;88.90;;;;;;4979646;28;20432;-85
2021/08/05 11:02:21;;;;;;;1.40;1.30;;;25.30;89.10;;;;;;4881288;29;20672;-86
2021/08/05 11:05:08;;;;;;;;;;;;;;;;;;;;;
2021/08/05 11:07:45;;;;;;;1.63;1.53;;;25.00;90.60;;;;;;4979295;28;20538;-85
2021/08/05 11:10:28;;;;;;;1.73;1.63;;;24.80;90.80;;;;;;4979007;28;20440;-85
2021/08/05 11:13:32;;;;;;;1.50;1.50;;;24.90;91.70;;;;;;4978537;28;20510;-85
2021/08/05 11:16:51;;;;;;;2.50;1.60;;;25.30;91.10;;;;;;4978902;28;20480;-85
2021/08/05 11:29:53;;;;;;;;;;;;;;;;;;;;;
2021/08/05 11:33:04;;;;;;;1.50;1.40;;;25.40;89.50;;;;;;4921154;29;20581;-85
2021/08/05 11:36:19;;;;;;;;;;;;;;;;;;;;;
2021/08/05 11:46:20;;;;;;;;;;;;;;;;;;;;;
2021/08/05 12:17:12;;;;;;;;;;;;;;;;;;;;;
2021/08/05 12:20:29;;;;;;;;;;;;;;;;;;;;;
2021/08/05 12:23:21;;;;;;;1.67;1.57;;;27.90;79.40;;;;;;5032983;28;20887;-86
2021/08/05 12:26:15;;;;;;;1.60;1.50;;;28.30;80.00;;;;;;5071819;28;20453;-86
2021/08/05 12:28:55;;;;;;;2.53;1.43;;;28.60;80.00;;;;;;5075583;28;20465;-86
2021/08/05 12:31:50;;;;;;;1.50;1.40;;;28.60;76.50;;;;;;5073513;28;20456;-86
2021/08/05 13:23:37;;;;;;;1.27;1.17;;;19.80;99.90;;;;;;5065275;28;20503;-85
2021/08/05 14:25:17;;;;;;;1.10;1.00;;;25.40;98.10;;;;;;4773810;29;20461;-85
2021/08/05 15:12:47;;;;;;;2.83;1.63;;;29.20;92.00;;;;;;4844473;29;20445;-86
2021/08/05 15:18:32;;;;;;;1.30;1.20;;;31.20;83.80;;;;;;5023953;28;20471;-85
2021/08/05 15:24:07;;;;;;;1.53;1.43;;;31.50;78.70;;;;;;5033793;28;20477;-86
2021/08/05 15:37:13;;;;;;;;;;;;;;;;;;;;;
2021/08/05 15:51:09;;;;;;;1.30;1.20;;;22.30;97.80;;;;;;5051611;28;20458;-85
2021/08/05 15:53:49;;;;;;;1.00;0.97;;;22.00;98.60;;;;;;5058506;28;20979;-85
2021/08/05 15:59:24;;;;;;;1.47;1.37;;;21.40;99.90;;;;;;4990738;28;20441;-86
2021/08/05 16:02:13;;;;;;;1.70;1.60;;;21.00;99.90;;;;;;5058118;28;20525;-85
2021/08/05 16:04:43;;;;;;;1.40;1.30;;;20.90;99.90;;;;;;5058432;28;20552;-86
2021/08/05 16:07:25;;;;;;;1.70;1.60;;;20.80;99.90;;;;;;5058538;28;20452;-85
2021/08/05 16:10:18;;;;;;;1.67;1.57;;;20.60;99.90;;;;;;5058589;28;20462;-85
2021/08/05 17:00:32;;;;;;;2.20;1.87;;;20.00;99.90;;;;;;5140533;27;20423;-86
2021/08/05 17:06:36;;;;;;;1.77;1.60;;;20.00;99.90;;;;;;5017576;28;20481;-86
2021/08/05 17:09:14;;;;;;;1.70;1.60;;;20.10;99.90;;;;;;5023618;27;20451;-87
2021/08/05 17:11:41;;;;;;;1.60;1.50;;;20.20;99.90;;;;;;5134810;27;20456;-85
2021/08/05 17:14:22;;;;;;;;;;;;;;;;;;;;;
2021/08/05 17:21:12;;;;;;;;;;;;;;;;;;;;;
2021/08/05 17:30:48;;;;;;;;;;;;;;;;;;;;;
2021/08/05 17:33:45;;;;;;;3.00;1.87;;;20.20;99.90;;;;;;4986583;28;20536;-86
2021/08/05 17:36:18;;;;;;;1.60;1.50;;;20.10;99.90;;;;;;5070656;28;20925;-86
2021/08/05 17:39:27;;;;;;;;;;;;;;;;;;;;;
2021/08/05 17:45:58;;;;;;;;;;;;;;;;;;;;;
2021/08/05 17:48:38;;;;;;;1.27;1.20;;;19.90;99.90;;;;;;5007838;28;20455;-86
2021/08/05 17:51:31;;;;;;;1.87;1.73;;;19.80;99.90;;;;;;5011579;28;20460;-84
2021/08/05 17:54:07;;;;;;;1.60;1.40;;;19.80;99.90;;;;;;5077478;28;20548;-86
2021/08/05 18:03:22;;;;;;;2.07;1.50;;;19.60;99.90;;;;;;4960965;28;20954;-86
2021/08/05 18:16:11;;;;;;;1.47;1.37;;;19.40;99.90;;;;;;4761369;29;20463;-86
2021/08/05 18:35:43;;;;;;;2.80;2.50;;;19.20;99.90;;;;;;4916737;29;20448;-85
2021/08/05 19:31:48;;;;;;;;;;;;;;;;;;;;;
2021/08/05 20:58:16;;;;;;;1.33;1.23;;;17.70;99.90;;;;;;4780438;29;20829;-84
2021/08/05 22:52:16;;;;;;;1.30;1.20;;;16.70;99.90;;;;;;6187107;22;1294517;-86
2021/08/05 23:13:42;;;;;;;2.90;1.47;;;16.30;99.90;;;;;;6160995;23;20734;-84
2021/08/05 23:16:54;;;;;;;1.30;1.20;;;16.20;99.90;;;;;;6224894;23;20397;-85
2021/08/05 23:29:44;;;;;;;1.90;1.33;;;16.10;99.90;;;;;;5969738;23;20403;-85
2021/08/05 23:32:45;;;;;;;1.37;1.27;;;16.20;99.90;;;;;;6082191;23;20506;-85
2021/08/05 23:36:00;;;;;;;;;;;;;;;;;;;;;
2021/08/05 23:42:14;;;;;;;;;;;;;;;;;;;;;
2021/08/05 23:45:40;;;;;;;;;;;;;;;;;;;;;
2021/08/05 23:52:17;;;;;;;;;;;;;;;;;;;;;
